createdAt,value
2022-08-18T00:02:37.631Z,61.10
2022-08-18T00:07:42.328Z,61.43
2022-08-18T00:12:49.464Z,61.34
2022-08-18T00:17:50.094Z,61.90
2022-08-18T00:22:51.697Z,61.31
2022-08-18T00:27:53.897Z,61.34
2022-08-18T00:32:57.015Z,61.14
2022-08-18T00:37:59.506Z,61.39
2022-08-18T00:43:04.057Z,60.80
2022-08-18T00:48:06.539Z,60.75
2022-08-18T00:53:12.529Z,60.55
2022-08-18T00:58:21.872Z,60.32
2022-08-18T01:03:25.033Z,60.98
2022-08-18T01:08:29.173Z,61.63
2022-08-18T01:13:33.610Z,61.68
2022-08-18T01:18:52.283Z,62.06
2022-08-18T01:23:55.572Z,62.26
2022-08-18T01:28:56.238Z,62.58
2022-08-18T01:33:57.245Z,62.71
2022-08-18T01:38:59.283Z,63.39
2022-08-18T01:44:00.683Z,63.52
2022-08-18T01:49:02.008Z,62.99
2022-08-18T01:54:05.420Z,63.21
2022-08-18T01:59:06.977Z,62.88
2022-08-18T02:04:33.209Z,62.53
2022-08-18T02:09:30.194Z,63.15
2022-08-18T02:14:31.302Z,63.11
2022-08-18T02:19:35.175Z,62.92
2022-08-18T02:24:37.377Z,62.71
2022-08-18T02:29:38.386Z,62.67
2022-08-18T02:34:38.995Z,62.22
2022-08-18T02:39:41.361Z,62.90
2022-08-18T02:44:42.200Z,63.15
2022-08-18T02:49:42.782Z,62.24
2022-08-18T02:54:44.952Z,62.28
2022-08-18T02:59:46.910Z,62.73
2022-08-18T03:04:49.385Z,63.69
2022-08-18T03:09:51.409Z,63.56
2022-08-18T03:14:52.083Z,63.83
2022-08-18T03:19:52.933Z,63.87
2022-08-18T03:24:56.845Z,64.20
2022-08-18T03:29:58.701Z,63.92
2022-08-18T03:34:59.729Z,64.03
2022-08-18T03:40:01.776Z,64.52
2022-08-18T03:45:13.015Z,64.25
2022-08-18T03:50:19.565Z,63.57
2022-08-18T03:55:21.706Z,64.54
2022-08-18T04:00:23.558Z,65.04
2022-08-18T04:05:24.149Z,65.57
2022-08-18T04:10:26.583Z,65.59
2022-08-18T04:15:27.277Z,65.79
2022-08-18T04:20:28.591Z,66.33
2022-08-18T04:25:33.169Z,66.67
2022-08-18T04:30:34.030Z,66.69
2022-08-18T04:35:34.627Z,66.76
2022-08-18T04:40:37.507Z,67.75
2022-08-18T04:45:40.103Z,67.44
2022-08-18T04:50:40.786Z,67.30
2022-08-18T04:55:49.313Z,67.35
2022-08-18T05:00:58.469Z,66.96
2022-08-18T05:06:00.394Z,66.39
2022-08-18T05:11:04.258Z,65.89
2022-08-18T05:16:11.117Z,65.87
2022-08-18T05:21:15.675Z,64.83
2022-08-18T05:26:19.925Z,64.79
2022-08-18T05:31:24.309Z,64.41
2022-08-18T05:36:47.735Z,64.91
2022-08-18T05:41:52.816Z,64.32
2022-08-18T05:46:56.986Z,64.57
2022-08-18T05:52:01.965Z,64.35
2022-08-18T05:57:08.980Z,62.72
2022-08-18T06:02:15.968Z,62.65
2022-08-18T06:07:19.513Z,61.68
2022-08-18T06:12:33.480Z,60.98
2022-08-18T06:17:58.425Z,59.99
2022-08-18T06:23:14.827Z,59.62
2022-08-18T06:28:18.144Z,58.70
2022-08-18T06:33:43.698Z,57.73
2022-08-18T06:38:58.287Z,57.13
2022-08-18T06:44:04.010Z,55.77
2022-08-18T06:49:08.495Z,55.16
2022-08-18T06:54:27.974Z,54.69
2022-08-18T06:59:32.041Z,54.06
2022-08-18T07:04:44.290Z,54.34
2022-08-18T07:09:45.477Z,54.27
2022-08-18T07:14:50.481Z,54.03
2022-08-18T07:20:03.577Z,52.92
2022-08-18T07:25:06.054Z,52.33
2022-08-18T07:30:15.608Z,50.68
2022-08-18T07:35:39.118Z,48.82
2022-08-18T07:40:47.074Z,47.65
2022-08-18T07:45:49.048Z,46.52
2022-08-18T07:51:04.151Z,45.72
2022-08-18T07:56:19.610Z,44.99
2022-08-18T08:01:29.694Z,45.13
2022-08-18T08:06:40.268Z,44.16
2022-08-18T08:11:52.287Z,44.00
2022-08-18T08:17:02.900Z,43.78
2022-08-18T08:22:10.261Z,43.66
2022-08-18T08:27:18.832Z,43.71
2022-08-18T08:32:31.933Z,43.95
2022-08-18T08:37:41.786Z,43.38
2022-08-18T08:42:48.838Z,42.55
2022-08-18T08:48:08.503Z,41.17
2022-08-18T08:53:20.546Z,40.60
2022-08-18T08:58:26.503Z,39.54
2022-08-18T09:03:39.644Z,39.81
2022-08-18T09:08:53.038Z,40.85
2022-08-18T09:14:25.014Z,40.59
2022-08-18T09:19:49.045Z,41.05
2022-08-18T09:24:53.281Z,41.19
2022-08-18T09:29:57.525Z,41.31
2022-08-18T09:35:12.746Z,40.94
2022-08-18T09:41:01.073Z,40.15
2022-08-18T09:45:58.559Z,38.79
2022-08-18T09:51:23.542Z,37.97
2022-08-18T09:57:16.570Z,38.73
2022-08-18T10:02:56.241Z,38.30
2022-08-18T10:08:30.722Z,38.13
2022-08-18T10:19:10.576Z,37.10
2022-08-18T10:24:36.655Z,38.03
2022-08-18T10:29:48.330Z,38.77
2022-08-18T10:34:52.886Z,39.01
2022-08-18T10:39:59.126Z,38.17
2022-08-18T10:45:07.757Z,38.20
2022-08-18T10:50:21.466Z,38.24
2022-08-18T10:55:54.749Z,38.19
2022-08-18T11:01:08.960Z,39.20
2022-08-18T11:06:17.841Z,39.53
2022-08-18T11:11:34.661Z,39.64
2022-08-18T11:16:55.978Z,39.17
2022-08-18T11:21:57.184Z,39.66
2022-08-18T11:27:02.011Z,38.78
2022-08-18T11:37:48.662Z,39.76
2022-08-18T11:42:58.492Z,40.00
2022-08-18T11:53:44.196Z,42.68
2022-08-18T11:58:50.505Z,43.36
2022-08-18T12:03:51.486Z,43.32
2022-08-18T12:08:59.142Z,43.42
2022-08-18T12:19:30.660Z,43.99
2022-08-18T12:29:58.264Z,44.27
2022-08-18T12:35:03.525Z,43.95
2022-08-18T12:40:10.442Z,43.94
2022-08-18T12:45:13.042Z,43.42
2022-08-18T12:50:13.769Z,43.48
2022-08-18T12:55:21.347Z,42.20
2022-08-18T13:00:28.890Z,42.18
2022-08-18T13:05:30.269Z,42.27
2022-08-18T13:10:42.893Z,42.28
2022-08-18T13:15:57.749Z,42.30
2022-08-18T13:21:00.207Z,42.09
2022-08-18T13:26:03.290Z,42.34
2022-08-18T13:31:06.022Z,42.71
2022-08-18T13:36:07.196Z,42.54
2022-08-18T13:41:08.696Z,41.42
2022-08-18T13:46:19.758Z,41.46
2022-08-18T13:51:32.068Z,41.73
2022-08-18T13:56:32.657Z,40.85
2022-08-18T14:01:44.642Z,41.21
2022-08-18T14:06:57.190Z,42.38
2022-08-18T14:11:59.212Z,42.13
2022-08-18T14:17:01.913Z,41.87
2022-08-18T14:22:20.087Z,42.74
2022-08-18T14:27:25.686Z,43.14
2022-08-18T14:32:29.990Z,43.56
2022-08-18T14:37:31.165Z,44.38
2022-08-18T14:42:41.749Z,44.67
2022-08-18T14:47:58.016Z,44.79
2022-08-18T14:52:59.101Z,44.36
2022-08-18T14:57:59.863Z,44.58
2022-08-18T15:03:01.810Z,44.63
2022-08-18T15:08:04.693Z,45.31
2022-08-18T15:13:05.447Z,45.54
2022-08-18T15:18:08.069Z,45.38
2022-08-18T15:23:36.405Z,46.00
2022-08-18T15:28:38.971Z,45.52
2022-08-18T15:33:42.120Z,45.21
2022-08-18T15:38:42.734Z,45.16
2022-08-18T15:43:46.025Z,44.68
2022-08-18T15:48:48.390Z,45.18
2022-08-18T15:53:49.131Z,44.64
2022-08-18T15:58:50.407Z,44.46
2022-08-18T16:03:54.515Z,45.64
2022-08-18T16:08:55.512Z,45.39
2022-08-18T16:13:58.624Z,46.33
2022-08-18T16:19:01.897Z,46.90
2022-08-18T16:24:02.622Z,47.26
2022-08-18T16:29:03.267Z,48.14
2022-08-18T16:34:05.837Z,48.54
2022-08-18T16:39:06.536Z,48.94
2022-08-18T16:44:07.588Z,49.17
2022-08-18T16:49:10.261Z,49.57
2022-08-18T16:54:10.864Z,49.74
2022-08-18T17:04:35.945Z,50.53
2022-08-18T17:09:37.222Z,50.60
2022-08-18T17:14:39.138Z,51.07
2022-08-18T17:19:41.098Z,51.35
2022-08-18T17:24:44.098Z,51.15
2022-08-18T17:30:00.472Z,51.51
2022-08-18T17:35:05.951Z,51.38
2022-08-18T17:40:14.310Z,51.60
2022-08-18T17:45:21.624Z,52.03
2022-08-18T17:50:46.787Z,52.24
2022-08-18T17:55:51.527Z,52.50
2022-08-18T18:00:52.614Z,52.37
2022-08-18T18:06:04.058Z,52.54
2022-08-18T18:11:12.534Z,52.92
2022-08-18T18:16:28.033Z,53.11
2022-08-18T18:22:01.035Z,53.62
2022-08-18T18:26:54.218Z,54.72
2022-08-18T18:32:01.946Z,55.75
2022-08-18T18:37:04.024Z,56.83
2022-08-18T18:42:17.624Z,58.07
2022-08-18T18:47:38.506Z,57.94
2022-08-18T18:52:47.962Z,58.80
2022-08-18T18:58:00.014Z,59.88
2022-08-18T19:03:07.680Z,60.82
2022-08-18T19:08:20.087Z,61.27
2022-08-18T19:13:32.648Z,61.80
2022-08-18T19:18:40.121Z,60.81
2022-08-18T19:23:46.446Z,60.53
2022-08-18T19:29:11.933Z,60.38
2022-08-18T19:34:16.369Z,60.33
2022-08-18T19:39:28.208Z,60.00
2022-08-18T19:44:35.659Z,59.66
2022-08-18T19:49:42.536Z,59.44
2022-08-18T19:54:57.803Z,60.47
2022-08-18T20:00:13.038Z,61.16
2022-08-18T20:05:22.763Z,62.52
2022-08-18T20:10:45.606Z,63.46
2022-08-18T20:16:12.024Z,63.94
2022-08-18T20:21:39.898Z,64.74
2022-08-18T20:26:47.008Z,65.48
2022-08-18T20:32:00.281Z,65.99
2022-08-18T20:37:08.162Z,66.99
2022-08-18T20:42:55.863Z,66.81
2022-08-18T20:48:17.377Z,66.88
2022-08-18T20:53:36.143Z,66.90
2022-08-18T20:58:45.869Z,67.05
2022-08-18T21:03:47.103Z,67.00
2022-08-18T21:08:51.049Z,67.66
2022-08-18T21:13:55.327Z,68.24
2022-08-18T21:19:01.173Z,68.58
2022-08-18T21:24:03.634Z,68.35
2022-08-18T21:29:09.013Z,69.31
2022-08-18T21:34:12.672Z,70.04
2022-08-18T21:39:17.354Z,70.01
2022-08-18T21:44:24.270Z,70.41
2022-08-18T21:49:27.115Z,70.32
2022-08-18T21:54:34.586Z,70.83
2022-08-18T21:59:37.383Z,72.08
2022-08-18T22:04:46.297Z,74.29
2022-08-18T22:10:16.809Z,74.56
2022-08-18T22:15:21.597Z,74.78
2022-08-18T22:20:47.359Z,75.30
2022-08-18T22:25:48.959Z,75.30
2022-08-18T22:30:50.922Z,75.67
2022-08-18T22:35:55.000Z,75.57
2022-08-18T22:40:55.681Z,75.56
2022-08-18T22:45:57.636Z,75.50
2022-08-18T22:50:58.381Z,75.26
2022-08-18T22:56:05.880Z,75.73
2022-08-18T23:01:10.378Z,76.05
2022-08-18T23:06:11.278Z,75.98
2022-08-18T23:11:12.598Z,75.76
2022-08-18T23:16:31.719Z,75.99
2022-08-18T23:21:34.772Z,76.20
2022-08-18T23:26:36.493Z,76.55
2022-08-18T23:31:39.960Z,77.08
2022-08-18T23:36:45.294Z,76.73
2022-08-18T23:41:46.486Z,77.01
2022-08-18T23:46:50.848Z,77.09
2022-08-18T23:51:55.518Z,77.15
2022-08-18T23:56:56.123Z,77.09
